createdAt,value
2022-09-13T00:02:29.162Z,4.78
2022-09-13T00:10:04.518Z,4.45
2022-09-13T00:17:38.296Z,5.07
2022-09-13T00:25:13.367Z,5.53
2022-09-13T00:40:22.692Z,5.10
2022-09-13T00:48:00.445Z,5.10
2022-09-13T00:55:40.264Z,4.68
2022-09-13T01:03:15.971Z,4.10
2022-09-13T01:10:53.173Z,4.32
2022-09-13T01:18:27.150Z,3.88
2022-09-13T01:26:26.958Z,3.60
2022-09-13T01:34:15.297Z,3.92
2022-09-13T01:42:01.594Z,3.92
2022-09-13T01:49:47.041Z,4.20
2022-09-13T01:57:27.446Z,4.20
2022-09-13T02:05:06.731Z,4.18
2022-09-13T02:12:43.075Z,3.90
2022-09-13T02:20:22.636Z,4.50
2022-09-13T02:28:04.432Z,4.40
2022-09-13T02:35:46.852Z,4.07
2022-09-13T02:43:24.081Z,4.18
2022-09-13T02:51:04.791Z,5.28
2022-09-13T02:58:46.911Z,4.75
2022-09-13T03:06:26.482Z,4.53
2022-09-13T03:14:19.094Z,4.05
2022-09-13T03:22:09.629Z,4.82
2022-09-13T03:29:52.238Z,4.88
2022-09-13T03:37:34.072Z,5.00
2022-09-13T03:45:10.539Z,4.72
2022-09-13T03:52:48.440Z,5.43
2022-09-13T04:00:22.716Z,5.07
2022-09-13T04:07:57.818Z,5.53
2022-09-13T04:23:07.242Z,5.88
2022-09-13T04:30:42.813Z,6.35
2022-09-13T04:38:17.854Z,6.05
2022-09-13T04:53:26.637Z,5.78
2022-09-13T05:08:38.989Z,6.28
2022-09-13T05:16:12.755Z,5.85
2022-09-13T05:23:50.172Z,6.43
2022-09-13T05:31:26.055Z,5.95
2022-09-13T05:39:28.449Z,7.03
2022-09-13T05:46:55.169Z,6.70
2022-09-13T05:54:30.438Z,6.47
2022-09-13T06:02:04.247Z,7.47
2022-09-13T06:09:39.415Z,6.95
2022-09-13T06:17:13.188Z,7.20
2022-09-13T06:24:48.419Z,6.95
2022-09-13T06:32:22.487Z,7.85
2022-09-13T06:39:57.725Z,8.90
2022-09-13T06:47:31.701Z,7.70
2022-09-13T06:55:10.836Z,8.65
2022-09-13T07:02:51.352Z,10.85
2022-09-13T07:10:26.424Z,10.27
2022-09-13T07:25:34.981Z,8.93
2022-09-13T07:33:08.711Z,9.05
2022-09-13T07:40:44.048Z,8.95
2022-09-13T07:48:17.842Z,9.43
2022-09-13T07:55:52.952Z,9.30
2022-09-13T08:03:26.691Z,9.48
2022-09-13T08:11:02.811Z,10.25
2022-09-13T08:18:36.468Z,11.13
2022-09-13T08:26:11.948Z,9.35
2022-09-13T08:33:47.425Z,9.43
2022-09-13T08:41:56.336Z,9.45
2022-09-13T08:49:35.651Z,11.43
2022-09-13T08:57:18.723Z,12.15
2022-09-13T09:04:57.809Z,10.20
2022-09-13T09:12:40.500Z,9.48
2022-09-13T09:20:24.981Z,9.75
2022-09-13T09:28:00.871Z,9.20
2022-09-13T09:35:50.986Z,8.05
2022-09-13T09:43:33.431Z,8.90
2022-09-13T09:51:10.402Z,7.32
2022-09-13T09:58:47.643Z,7.93
2022-09-13T10:06:24.250Z,7.10
2022-09-13T10:14:02.790Z,7.35
2022-09-13T10:21:36.514Z,6.63
2022-09-13T10:29:17.657Z,5.50
2022-09-13T10:36:57.080Z,6.25
2022-09-13T10:44:35.441Z,6.32
2022-09-13T10:52:33.394Z,6.43
2022-09-13T11:00:12.328Z,6.43
2022-09-13T11:08:07.416Z,7.07
2022-09-13T11:15:59.790Z,7.27
2022-09-13T11:24:19.165Z,7.47
2022-09-13T11:32:05.766Z,6.72
2022-09-13T11:39:43.399Z,6.97
2022-09-13T11:47:31.630Z,7.88
2022-09-13T11:55:16.563Z,7.00
2022-09-13T12:03:01.603Z,5.88
2022-09-13T12:10:40.603Z,6.05
2022-09-13T12:18:21.223Z,8.10
2022-09-13T12:26:00.385Z,6.70
2022-09-13T12:33:39.523Z,6.18
2022-09-13T12:41:28.386Z,7.68
2022-09-13T12:49:32.550Z,8.20
2022-09-13T12:57:19.422Z,7.75
2022-09-13T13:04:59.743Z,6.95
2022-09-13T13:12:35.754Z,7.55
2022-09-13T13:20:49.330Z,8.02
2022-09-13T13:29:06.334Z,8.43
2022-09-13T13:36:49.099Z,7.70
2022-09-13T13:45:05.408Z,11.05
2022-09-13T13:52:41.372Z,9.05
2022-09-13T14:00:17.761Z,9.23
2022-09-13T14:08:17.766Z,8.07
2022-09-13T14:16:02.695Z,10.65
2022-09-13T14:23:37.861Z,9.50
2022-09-13T14:31:19.905Z,10.57
2022-09-13T14:38:59.966Z,9.35
2022-09-13T14:46:38.885Z,7.93
2022-09-13T14:54:20.453Z,8.23
2022-09-13T15:01:54.464Z,8.02
2022-09-13T15:09:29.881Z,8.90
2022-09-13T15:17:10.087Z,6.80
2022-09-13T15:24:48.741Z,6.47
2022-09-13T15:32:25.941Z,5.07
2022-09-13T15:40:21.775Z,6.03
2022-09-13T15:47:55.542Z,5.30
2022-09-13T15:55:35.590Z,5.28
2022-09-13T16:03:10.107Z,4.65
2022-09-13T16:10:45.594Z,4.20
2022-09-13T16:18:19.348Z,3.85
2022-09-13T16:25:57.716Z,3.67
2022-09-13T16:33:32.070Z,3.75
2022-09-13T16:41:08.118Z,3.87
2022-09-13T16:48:42.127Z,3.72
2022-09-13T16:56:23.772Z,3.67
2022-09-13T17:03:58.130Z,3.58
2022-09-13T17:11:35.075Z,4.50
2022-09-13T17:19:12.465Z,3.58
2022-09-13T17:26:47.668Z,3.78
2022-09-13T17:34:21.562Z,3.08
2022-09-13T17:41:56.659Z,3.22
2022-09-13T17:49:30.448Z,2.95
2022-09-13T17:57:06.092Z,2.55
2022-09-13T18:04:39.792Z,2.75
2022-09-13T18:12:16.874Z,3.05
2022-09-13T18:19:50.566Z,3.03
2022-09-13T18:27:25.710Z,2.60
2022-09-13T18:34:59.580Z,3.40
2022-09-13T18:42:34.669Z,3.25
2022-09-13T18:50:11.680Z,2.88
2022-09-13T18:57:47.201Z,2.92
2022-09-13T19:05:20.939Z,3.00
2022-09-13T19:12:55.996Z,3.13
2022-09-13T19:28:06.647Z,3.58
2022-09-13T19:35:40.636Z,3.65
2022-09-13T19:43:16.195Z,3.75
2022-09-13T19:50:50.213Z,3.78
2022-09-13T19:58:25.501Z,3.13
2022-09-13T20:06:03.155Z,3.90
2022-09-13T20:13:38.666Z,3.70
2022-09-13T20:21:12.396Z,3.55
2022-09-13T20:28:48.381Z,3.85
2022-09-13T20:36:22.575Z,4.38
2022-09-13T20:43:59.601Z,4.03
2022-09-13T20:51:34.776Z,4.10
2022-09-13T20:59:11.122Z,3.75
2022-09-13T21:06:58.699Z,4.20
2022-09-13T21:14:34.007Z,4.55
2022-09-13T21:22:08.046Z,3.05
2022-09-13T21:29:43.342Z,2.80
2022-09-13T21:37:17.039Z,2.75
2022-09-13T21:44:52.148Z,2.53
2022-09-13T22:00:01.166Z,1.98
2022-09-13T22:15:10.936Z,1.98
2022-09-13T22:22:45.765Z,2.38
2022-09-13T22:30:20.898Z,1.77
2022-09-13T22:45:29.647Z,2.17
2022-09-13T23:00:38.725Z,1.90
2022-09-13T23:08:12.537Z,2.13
2022-09-13T23:15:47.703Z,2.58
2022-09-13T23:23:21.524Z,2.35
2022-09-13T23:30:56.801Z,2.08
2022-09-13T23:38:30.723Z,2.28
2022-09-13T23:46:06.385Z,2.30
2022-09-13T23:53:40.353Z,2.20
